Time;durP1;ratioP1;P1;durP2;ratioP2;P2;SDS_P1;SDS_P2;PMS_P1;PMS_P2;Temp;Humidity;BMP_temperature;BMP_pressure;BME280_temperature;BME280_humidity;BME280_pressure;Samples;Min_cycle;Max_cycle;Signal;HPM_P1;HPM_P2
2023/04/08 00:01:14;;;;;;;71.70;43.10;;;;;;;1.43;81.12;97222.42;108725;1252;95589;-73
2023/04/08 00:03:42;;;;;;;73.10;43.60;;;;;;;1.41;81.18;97219.98;108752;1252;96124;-72
2023/04/08 00:06:10;;;;;;;71.40;43.00;;;;;;;1.39;81.12;97218.39;108750;1252;103688;-71
2023/04/08 00:08:38;;;;;;;63.50;39.50;;;;;;;1.37;81.08;97218.45;108820;1252;110213;-71
2023/04/08 00:11:06;;;;;;;61.70;38.00;;;;;;;1.36;81.10;97217.12;108783;1252;99992;-72
2023/04/08 00:13:35;;;;;;;66.10;40.30;;;;;;;1.37;81.11;97221.67;108729;1251;95579;-72
2023/04/08 00:16:03;;;;;;;68.50;39.60;;;;;;;1.35;81.03;97224.61;108798;1252;95612;-71
2023/04/08 00:18:31;;;;;;;61.90;39.50;;;;;;;1.32;80.98;97222.89;108779;1252;103602;-71
2023/04/08 00:21:00;;;;;;;58.40;37.80;;;;;;;1.27;81.01;97223.09;108473;1253;101278;-71
2023/04/08 00:23:28;;;;;;;63.50;38.50;;;;;;;1.23;81.14;97224.15;108783;1252;100022;-72
2023/04/08 00:25:56;;;;;;;61.90;38.30;;;;;;;1.23;81.21;97220.77;108804;1252;95872;-71
2023/04/08 00:28:24;;;;;;;55.80;34.50;;;;;;;1.21;81.07;97220.13;108778;1252;96065;-71
2023/04/08 00:30:53;;;;;;;58.40;36.00;;;;;;;1.20;81.01;97222.36;108754;1251;103844;-72
2023/04/08 00:33:23;;;;;;;57.50;35.00;;;;;;;1.22;81.07;97225.75;108667;1252;101606;-71
2023/04/08 00:35:51;;;;;;;66.40;39.50;;;;;;;1.22;81.00;97228.01;108695;1252;99463;-72
2023/04/08 00:38:19;;;;;;;69.50;41.90;;;;;;;1.19;80.99;97227.64;108765;1252;95577;-73
2023/04/08 00:40:48;;;;;;;64.70;40.00;;;;;;;1.17;81.01;97227.06;108774;1252;96084;-71
2023/04/08 00:43:19;;;;;;;65.50;38.60;;;;;;;1.17;80.93;97232.10;108807;1252;103681;-71
2023/04/08 00:45:48;;;;;;;63.70;39.20;;;;;;;1.12;80.91;97231.54;108649;1252;100396;-71
2023/04/08 00:48:17;;;;;;;61.10;39.50;;;;;;;1.06;81.01;97232.68;108511;1253;101126;-71
2023/04/08 00:50:45;;;;;;;63.00;38.90;;;;;;;1.04;81.06;97232.42;108547;1253;95600;-71
2023/04/08 00:53:18;;;;;;;61.80;37.90;;;;;;;1.04;80.94;97230.86;108827;1252;96069;-71
2023/04/08 00:55:46;;;;;;;60.20;36.00;;;;;;;1.02;80.87;97235.00;108810;1252;103529;-71
2023/04/08 00:58:15;;;;;;;62.20;36.60;;;;;;;0.99;80.83;97238.69;108693;1252;100053;-73
2023/04/08 01:00:51;;;;;;;60.60;37.70;;;;;;;0.96;80.85;97241.60;108741;1252;99598;-73
2023/04/08 01:03:49;;;;;;;58.40;35.60;;;;;;;0.89;80.83;97242.84;108645;1252;96435;-70
2023/04/08 01:06:25;;;;;;;56.10;36.10;;;;;;;0.87;80.94;97242.39;108257;1259;96035;-71
2023/04/08 01:08:54;;;;;;;55.60;34.90;;;;;;;0.85;80.84;97249.45;108229;1259;103741;-71
2023/04/08 01:11:22;;;;;;;54.60;33.50;;;;;;;0.85;80.81;97251.79;108234;1259;102108;-71
2023/04/08 01:13:52;;;;;;;53.00;33.30;;;;;;;0.79;80.78;97258.42;108241;1259;99764;-71
2023/04/08 01:16:22;;;;;;;52.70;33.40;;;;;;;0.72;80.89;97256.48;108214;1259;95653;-73
2023/04/08 01:18:52;;;;;;;46.60;31.50;;;;;;;0.69;80.91;97254.52;108248;1259;96129;-72
2023/04/08 01:21:23;;;;;;;49.40;31.20;;;;;;;0.67;81.10;97258.59;108231;1259;103194;-71
2023/04/08 01:23:59;;;;;;;41.80;27.10;;;;;;;0.67;81.01;97256.44;108247;1259;101283;-71
2023/04/08 01:26:28;;;;;;;36.00;23.80;;;;;;;0.66;81.01;97257.98;108226;1259;100013;-71
2023/04/08 01:29:00;;;;;;;31.80;21.70;;;;;;;0.66;81.02;97261.10;108211;1259;95606;-71
2023/04/08 01:31:29;;;;;;;29.80;18.20;;;;;;;0.69;80.99;97263.52;108140;1259;96707;-71
2023/04/08 01:34:00;;;;;;;25.00;16.90;;;;;;;0.72;81.00;97266.59;108090;1259;103753;-73
2023/04/08 01:36:29;;;;;;;25.20;15.80;;;;;;;0.76;80.95;97267.98;108119;1259;109626;-73
2023/04/08 01:38:57;;;;;;;22.10;15.60;;;;;;;0.78;81.12;97267.73;108209;1259;100509;-71
2023/04/08 01:41:25;;;;;;;22.40;14.60;;;;;;;0.82;81.09;97269.54;108216;1259;95684;-71
2023/04/08 01:43:55;;;;;;;22.10;15.30;;;;;;;0.84;81.06;97268.80;108691;1253;96019;-71
2023/04/08 01:46:23;;;;;;;19.30;13.30;;;;;;;0.86;81.04;97267.66;108866;1252;103699;-71
2023/04/08 01:48:52;;;;;;;20.20;13.40;;;;;;;0.89;81.04;97269.15;108877;1253;101391;-71
2023/04/08 01:51:22;;;;;;;18.80;13.60;;;;;;;0.91;81.03;97270.11;108808;1253;100091;-71
2023/04/08 01:53:50;;;;;;;18.50;13.50;;;;;;;0.92;81.01;97270.02;108783;1253;95591;-71
2023/04/08 01:56:22;;;;;;;18.70;12.90;;;;;;;0.92;81.07;97270.95;108877;1252;96112;-72
2023/04/08 01:58:53;;;;;;;16.90;13.20;;;;;;;0.90;80.97;97266.85;108875;1251;103709;-71
2023/04/08 02:01:23;;;;;;;19.30;14.00;;;;;;;0.88;81.00;97269.94;108912;1253;101496;-71
2023/04/08 02:03:56;;;;;;;18.70;14.10;;;;;;;0.87;81.06;97274.61;108848;1253;98984;-71
2023/04/08 02:06:28;;;;;;;20.90;13.60;;;;;;;0.85;80.92;97279.26;108683;1253;95700;-71
2023/04/08 02:08:56;;;;;;;22.90;15.80;;;;;;;0.82;80.93;97282.73;108894;1251;95649;-70
2023/04/08 02:11:25;;;;;;;26.00;16.40;;;;;;;0.80;80.89;97285.94;108880;1253;103573;-71
2023/04/08 02:13:53;;;;;;;25.30;16.00;;;;;;;0.79;80.91;97285.89;108857;1252;101424;-71
2023/04/08 02:16:36;;;;;;;23.70;15.70;;;;;;;0.78;80.94;97285.48;108835;1252;100309;-71
2023/04/08 02:19:15;;;;;;;38.20;19.40;;;;;;;0.74;80.82;97288.30;108841;1254;95819;-72
2023/04/08 02:21:52;;;;;;;34.70;21.40;;;;;;;0.73;80.91;97285.80;108919;1252;96059;-72
2023/04/08 02:24:22;;;;;;;37.50;23.80;;;;;;;0.72;80.88;97287.89;108920;1252;103444;-71
2023/04/08 02:26:51;;;;;;;34.50;23.50;;;;;;;0.69;80.80;97290.95;108860;1254;101437;-73
2023/04/08 02:29:19;;;;;;;35.90;22.50;;;;;;;0.64;80.67;97292.73;108873;1252;100155;-72
2023/04/08 02:31:48;;;;;;;29.20;19.30;;;;;;;0.55;80.62;97292.38;108827;1252;95572;-72
2023/04/08 02:34:18;;;;;;;27.60;17.80;;;;;;;0.49;80.67;97292.41;108814;1252;96556;-71
2023/04/08 02:36:46;;;;;;;27.30;18.50;;;;;;;0.46;80.76;97290.48;108867;1252;103599;-72
2023/04/08 02:39:14;;;;;;;29.20;20.60;;;;;;;0.44;80.77;97293.81;108865;1252;101528;-71
2023/04/08 02:41:43;;;;;;;38.10;24.60;;;;;;;0.41;80.79;97294.13;108753;1252;99702;-74
2023/04/08 02:44:11;;;;;;;39.50;24.70;;;;;;;0.40;80.80;97294.41;108803;1252;95641;-73
2023/04/08 02:46:39;;;;;;;41.70;26.90;;;;;;;0.41;80.90;97297.02;108822;1252;95922;-71
2023/04/08 02:49:07;;;;;;;41.60;26.90;;;;;;;0.42;80.87;97300.92;108679;1252;102617;-74
2023/04/08 02:51:35;;;;;;;38.40;24.80;;;;;;;0.41;80.83;97298.61;108772;1252;101192;-74
2023/04/08 02:54:03;;;;;;;46.00;27.50;;;;;;;0.38;80.70;97300.66;108783;1252;99966;-72
2023/04/08 02:56:31;;;;;;;47.10;27.50;;;;;;;0.34;80.67;97302.27;108676;1252;95702;-72
2023/04/08 02:58:59;;;;;;;43.10;26.50;;;;;;;0.29;80.60;97304.80;108917;1252;96055;-71
2023/04/08 03:01:27;;;;;;;42.70;27.20;;;;;;;0.28;80.72;97306.48;108649;1252;103884;-71
2023/04/08 03:03:55;;;;;;;43.60;26.70;;;;;;;0.29;80.86;97307.83;108847;1252;101268;-74
2023/04/08 03:06:23;;;;;;;42.90;26.40;;;;;;;0.31;80.75;97306.27;108819;1251;99577;-74
2023/04/08 03:08:51;;;;;;;44.00;26.70;;;;;;;0.31;80.70;97305.91;108844;1253;95981;-71
2023/04/08 03:11:20;;;;;;;48.00;28.00;;;;;;;0.27;80.61;97311.02;108589;1252;96077;-74
2023/04/08 03:13:48;;;;;;;38.10;24.20;;;;;;;0.22;80.54;97314.91;108859;1253;103378;-72
2023/04/08 03:16:16;;;;;;;39.30;25.20;;;;;;;0.21;80.53;97319.65;108802;1253;101394;-73
2023/04/08 03:18:44;;;;;;;38.30;24.50;;;;;;;0.19;80.56;97319.83;108804;1253;100124;-71
2023/04/08 03:21:12;;;;;;;38.80;24.30;;;;;;;0.18;80.50;97323.29;108851;1251;95573;-72
2023/04/08 03:23:40;;;;;;;45.40;25.40;;;;;;;0.15;80.50;97322.86;108822;1255;96799;-71
2023/04/08 03:26:08;;;;;;;41.70;26.00;;;;;;;0.13;80.53;97327.51;108879;1251;103675;-72
2023/04/08 03:28:36;;;;;;;45.80;25.80;;;;;;;0.11;80.59;97328.77;108847;1252;101517;-72
2023/04/08 03:31:05;;;;;;;51.40;28.00;;;;;;;0.04;80.61;97329.39;108522;1252;98375;-72
2023/04/08 03:33:33;;;;;;;51.10;28.70;;;;;;;-0.00;80.69;97333.73;108844;1252;95589;-72
2023/04/08 03:36:01;;;;;;;51.70;30.00;;;;;;;0.00;80.84;97336.15;108870;1251;96049;-71
2023/04/08 03:38:29;;;;;;;51.70;29.30;;;;;;;0.01;80.89;97340.31;108814;1253;103491;-71
2023/04/08 03:40:57;;;;;;;150.60;28.30;;;;;;;0.02;80.88;97339.91;108857;1251;109825;-73
2023/04/08 03:43:26;;;;;;;136.40;38.70;;;;;;;-0.03;80.71;97340.51;108844;1251;99887;-73
2023/04/08 03:45:56;;;;;;;134.10;33.70;;;;;;;-0.09;80.69;97343.10;108663;1252;95577;-72
2023/04/08 03:48:24;;;;;;;86.10;35.40;;;;;;;-0.17;80.70;97350.90;108856;1252;95934;-73
2023/04/08 03:50:52;;;;;;;92.60;34.20;;;;;;;-0.19;80.80;97356.40;108857;1251;104154;-71
2023/04/08 03:53:20;;;;;;;53.40;29.90;;;;;;;-0.23;80.88;97357.67;108896;1252;101493;-73
2023/04/08 03:55:50;;;;;;;50.00;25.00;;;;;;;-0.23;81.02;97360.49;108842;1252;99703;-71
2023/04/08 03:58:18;;;;;;;42.70;23.30;;;;;;;-0.25;80.92;97364.05;108816;1253;95567;-71
2023/04/08 04:00:46;;;;;;;49.10;24.50;;;;;;;-0.28;80.92;97366.84;108647;1251;96046;-72
2023/04/08 04:03:14;;;;;;;49.80;23.60;;;;;;;-0.33;80.92;97372.39;108684;1252;102793;-71
2023/04/08 04:05:43;;;;;;;46.80;24.30;;;;;;;-0.36;80.83;97380.14;108671;1253;100095;-72
2023/04/08 04:08:11;;;;;;;43.70;22.50;;;;;;;-0.41;80.93;97381.08;108829;1253;100049;-72
2023/04/08 04:10:39;;;;;;;39.90;22.50;;;;;;;-0.40;81.07;97384.35;108787;1252;95527;-72
2023/04/08 04:13:07;;;;;;;39.40;23.30;;;;;;;-0.39;81.00;97389.77;108867;1252;96003;-73
2023/04/08 04:15:39;;;;;;;49.50;23.20;;;;;;;-0.39;81.00;97393.11;108649;1252;104691;-72
2023/04/08 04:18:08;;;;;;;40.70;22.50;;;;;;;-0.41;80.94;97389.80;108858;1253;101401;-70
2023/04/08 04:20:37;;;;;;;38.70;23.30;;;;;;;-0.42;81.01;97390.21;108628;1252;108897;-72
2023/04/08 04:23:05;;;;;;;46.40;24.00;;;;;;;-0.41;81.16;97390.66;108860;1251;95583;-72
2023/04/08 04:25:33;;;;;;;49.60;22.90;;;;;;;-0.40;81.04;97389.29;108889;1251;95998;-72
2023/04/08 04:28:02;;;;;;;42.20;22.30;;;;;;;-0.42;81.02;97397.16;108860;1252;103526;-73
2023/04/08 04:30:30;;;;;;;48.50;23.70;;;;;;;-0.48;80.96;97398.61;108821;1253;101933;-71
2023/04/08 04:32:58;;;;;;;54.20;23.60;;;;;;;-0.48;81.10;97401.97;108804;1253;99993;-72
2023/04/08 04:35:26;;;;;;;63.70;21.80;;;;;;;-0.49;81.03;97405.02;108813;1251;95542;-71
2023/04/08 04:37:54;;;;;;;49.40;21.20;;;;;;;-0.54;81.07;97408.86;108916;1252;96057;-71
2023/04/08 04:40:22;;;;;;;45.20;21.80;;;;;;;-0.55;81.09;97413.59;108833;1253;103703;-72
2023/04/08 04:42:50;;;;;;;46.20;21.90;;;;;;;-0.56;81.05;97411.39;108802;1253;101106;-71
2023/04/08 04:45:18;;;;;;;45.10;22.90;;;;;;;-0.56;81.11;97414.48;108811;1252;99999;-72
2023/04/08 04:47:46;;;;;;;72.70;25.50;;;;;;;-0.55;81.05;97419.79;108801;1252;95582;-72
2023/04/08 04:50:14;;;;;;;46.10;24.20;;;;;;;-0.54;81.12;97427.27;108862;1252;95994;-71
2023/04/08 04:52:42;;;;;;;50.90;24.30;;;;;;;-0.53;81.10;97429.31;108637;1258;103528;-71
2023/04/08 04:55:10;;;;;;;60.10;26.60;;;;;;;-0.54;81.10;97429.16;108621;1252;101203;-72
2023/04/08 04:57:38;;;;;;;65.30;26.80;;;;;;;-0.53;81.11;97431.23;108502;1252;99860;-73
2023/04/08 05:00:08;;;;;;;56.80;26.40;;;;;;;-0.57;80.95;97425.54;108667;1252;95575;-72
2023/04/08 05:02:36;;;;;;;58.70;24.10;;;;;;;-0.63;81.03;97428.43;108856;1253;95912;-72
2023/04/08 05:05:05;;;;;;;57.60;24.70;;;;;;;-0.65;81.13;97430.22;108654;1253;103527;-73
2023/04/08 05:07:37;;;;;;;45.70;24.80;;;;;;;-0.64;81.15;97429.08;108823;1252;111308;-72
2023/04/08 05:10:05;;;;;;;49.30;25.10;;;;;;;-0.63;81.24;97431.98;108868;1251;100013;-71
2023/04/08 05:12:34;;;;;;;48.80;24.70;;;;;;;-0.62;81.33;97431.39;108850;1252;95549;-71
2023/04/08 05:15:02;;;;;;;47.30;25.10;;;;;;;-0.58;81.40;97429.37;108837;1251;96023;-72
2023/04/08 05:17:30;;;;;;;56.60;24.90;;;;;;;-0.54;81.44;97429.01;108802;1253;103321;-73
2023/04/08 05:19:58;;;;;;;48.30;23.90;;;;;;;-0.52;81.38;97434.28;108829;1253;101341;-71
2023/04/08 05:22:26;;;;;;;48.50;27.60;;;;;;;-0.51;81.40;97440.56;108838;1251;99965;-73
2023/04/08 05:24:54;;;;;;;44.40;27.10;;;;;;;-0.49;81.38;97447.09;108839;1251;95542;-72
2023/04/08 05:27:23;;;;;;;43.60;26.40;;;;;;;-0.47;81.38;97449.59;108571;1252;96170;-72
2023/04/08 05:29:51;;;;;;;54.20;29.90;;;;;;;-0.43;81.34;97449.92;108889;1251;103375;-73
2023/04/08 05:32:19;;;;;;;56.80;31.20;;;;;;;-0.38;81.48;97441.09;108901;1252;101275;-72
2023/04/08 05:34:47;;;;;;;51.90;31.90;;;;;;;-0.31;81.55;97438.54;108795;1252;99967;-71
2023/04/08 05:37:15;;;;;;;55.00;33.50;;;;;;;-0.25;81.51;97441.02;108573;1252;95740;-71
2023/04/08 05:39:43;;;;;;;57.00;34.80;;;;;;;-0.21;81.54;97442.00;108864;1253;95989;-72
2023/04/08 05:42:12;;;;;;;56.60;33.90;;;;;;;-0.17;81.45;97444.14;108894;1253;103866;-71
2023/04/08 05:44:42;;;;;;;56.50;33.30;;;;;;;-0.15;81.51;97445.91;108877;1252;101268;-73
2023/04/08 05:47:11;;;;;;;54.20;33.10;;;;;;;-0.12;81.57;97447.70;108701;1252;108420;-72
2023/04/08 05:49:40;;;;;;;56.00;32.80;;;;;;;-0.07;81.69;97454.51;108683;1253;95647;-71
2023/04/08 05:52:08;;;;;;;53.40;31.10;;;;;;;-0.02;81.73;97457.38;108843;1253;95580;-71
2023/04/08 05:54:36;;;;;;;45.40;28.90;;;;;;;0.03;81.66;97455.80;108865;1252;103652;-71
2023/04/08 05:57:04;;;;;;;46.50;28.10;;;;;;;0.08;81.69;97456.59;108816;1251;100375;-71
2023/04/08 05:59:32;;;;;;;44.00;28.60;;;;;;;0.15;81.65;97463.35;108784;1253;100006;-71
2023/04/08 06:02:00;;;;;;;56.70;35.20;;;;;;;0.21;81.87;97466.36;108857;1252;95624;-72
2023/04/08 06:04:28;;;;;;;50.60;31.70;;;;;;;0.24;81.86;97465.83;108855;1253;96040;-71
2023/04/08 06:06:58;;;;;;;45.70;29.30;;;;;;;0.31;81.91;97469.64;108862;1252;103298;-71
2023/04/08 06:09:26;;;;;;;44.30;28.40;;;;;;;0.40;82.03;97470.73;108819;1255;101428;-71
2023/04/08 06:11:55;;;;;;;38.10;26.00;;;;;;;0.48;81.92;97476.89;108831;1251;99484;-71
2023/04/08 06:14:23;;;;;;;37.60;25.40;;;;;;;0.57;81.95;97479.76;108808;1253;95629;-72
2023/04/08 06:16:53;;;;;;;53.70;34.00;;;;;;;0.66;81.95;97480.77;108641;1252;96064;-72
2023/04/08 06:19:21;;;;;;;60.00;36.70;;;;;;;0.74;81.99;97484.27;108826;1253;103643;-72
2023/04/08 06:21:50;;;;;;;60.40;37.60;;;;;;;0.81;82.10;97483.55;108860;1253;109570;-71
2023/04/08 06:24:18;;;;;;;54.90;33.10;;;;;;;0.88;82.06;97482.55;108528;1253;99698;-71
2023/04/08 06:26:46;;;;;;;48.50;32.00;;;;;;;0.93;82.08;97484.84;108860;1253;95620;-73
2023/04/08 06:29:15;;;;;;;53.30;33.00;;;;;;;0.95;82.11;97486.30;108844;1253;96619;-70
2023/04/08 06:31:43;;;;;;;47.90;31.80;;;;;;;0.97;82.27;97487.86;108932;1253;103420;-71
2023/04/08 06:34:11;;;;;;;49.50;32.40;;;;;;;1.02;82.24;97491.74;108812;1252;101477;-73
2023/04/08 06:36:39;;;;;;;48.40;31.50;;;;;;;1.08;82.31;97491.34;108494;1253;100066;-72
2023/04/08 06:39:07;;;;;;;44.60;30.30;;;;;;;1.16;82.33;97496.44;108874;1253;95537;-71
2023/04/08 06:41:35;;;;;;;40.80;27.80;;;;;;;1.25;82.25;97497.73;108655;1253;96098;-71
2023/04/08 06:44:03;;;;;;;40.50;28.00;;;;;;;1.33;82.03;97495.94;108649;1253;103380;-71
2023/04/08 06:46:31;;;;;;;36.50;24.40;;;;;;;1.42;81.94;97496.52;108652;1251;101272;-71
2023/04/08 06:48:59;;;;;;;32.60;22.10;;;;;;;1.50;81.82;97501.70;108612;1252;99949;-70
2023/04/08 06:51:27;;;;;;;32.00;20.80;;;;;;;1.60;81.75;97504.22;108822;1255;95561;-71
2023/04/08 06:53:56;;;;;;;25.30;17.40;;;;;;;1.71;81.66;97502.44;108821;1253;96038;-71
2023/04/08 06:56:25;;;;;;;24.00;17.30;;;;;;;1.80;81.38;97504.54;108836;1253;103689;-71
2023/04/08 06:58:53;;;;;;;25.10;16.50;;;;;;;1.90;81.00;97502.89;108787;1253;101352;-71
2023/04/08 07:01:21;;;;;;;22.80;16.20;;;;;;;1.99;80.78;97504.05;108850;1252;99937;-71
2023/04/08 07:03:49;;;;;;;23.80;16.00;;;;;;;2.08;80.69;97506.45;108831;1252;95582;-72
2023/04/08 07:06:17;;;;;;;21.40;15.40;;;;;;;2.18;80.58;97507.81;108853;1255;96043;-71
2023/04/08 07:08:46;;;;;;;18.90;14.20;;;;;;;2.28;80.63;97503.16;108701;1253;103514;-70
2023/04/08 07:11:14;;;;;;;20.10;14.50;;;;;;;2.39;80.53;97499.33;108677;1252;100638;-71
2023/04/08 07:13:43;;;;;;;20.40;14.20;;;;;;;2.52;80.40;97498.04;108801;1253;100212;-71
2023/04/08 07:16:11;;;;;;;16.80;12.80;;;;;;;2.63;80.23;97496.71;108529;1253;95667;-70
2023/04/08 07:18:40;;;;;;;16.20;11.90;;;;;;;2.74;80.01;97494.03;108910;1252;96010;-71
2023/04/08 07:21:08;;;;;;;16.30;11.50;;;;;;;2.83;79.82;97488.67;108827;1253;103951;-73
2023/04/08 07:23:36;;;;;;;15.60;11.90;;;;;;;2.94;79.41;97489.71;108858;1253;101186;-71
2023/04/08 07:26:05;;;;;;;16.30;12.10;;;;;;;3.03;79.15;97493.20;108823;1251;99896;-71
2023/04/08 07:28:33;;;;;;;14.20;10.80;;;;;;;3.14;78.96;97497.20;108786;1252;95561;-71
2023/04/08 07:31:17;;;;;;;15.10;10.10;;;;;;;3.23;78.80;97510.11;108826;1252;96018;-71
2023/04/08 07:33:46;;;;;;;14.40;10.20;;;;;;;3.37;79.12;97518.73;108882;1255;103709;-70
2023/04/08 07:36:17;;;;;;;13.00;10.20;;;;;;;3.57;79.20;97517.10;108839;1253;101732;-71
2023/04/08 07:38:45;;;;;;;12.00;9.50;;;;;;;3.77;78.51;97517.02;108838;1251;99451;-70
2023/04/08 07:41:14;;;;;;;14.90;10.90;;;;;;;3.86;77.90;97514.82;108872;1255;95986;-71
2023/04/08 07:43:42;;;;;;;12.80;10.20;;;;;;;3.95;78.04;97513.86;108832;1253;96163;-73
2023/04/08 07:46:11;;;;;;;13.70;10.60;;;;;;;4.17;78.22;97514.58;108632;1254;103218;-71
2023/04/08 07:48:39;;;;;;;13.00;9.20;;;;;;;4.61;78.13;97511.35;108530;1253;222186;-72
2023/04/08 07:51:09;;;;;;;9.90;7.80;;;;;;;5.11;77.68;97508.83;108800;1251;99961;-72
2023/04/08 07:53:37;;;;;;;9.90;7.90;;;;;;;5.53;76.57;97511.06;108857;1254;95567;-72
2023/04/08 07:56:12;;;;;;;11.60;8.50;;;;;;;5.91;76.04;97517.17;108835;1254;96069;-72
2023/04/08 07:58:41;;;;;;;11.10;8.30;;;;;;;6.39;75.48;97517.24;108777;1253;103217;-71
2023/04/08 08:01:23;;;;;;;9.50;7.70;;;;;;;6.82;74.80;97519.81;108555;1252;100601;-73
2023/04/08 08:03:51;;;;;;;8.90;7.60;;;;;;;7.27;74.44;97517.32;108822;1252;100151;-71
2023/04/08 08:06:20;;;;;;;9.90;8.00;;;;;;;7.68;73.91;97513.98;108767;1254;95706;-72
2023/04/08 08:08:49;;;;;;;8.80;7.30;;;;;;;8.09;73.18;97507.73;108835;1255;96647;-72
2023/04/08 08:11:17;;;;;;;8.10;6.60;;;;;;;8.47;72.32;97504.95;108828;1253;103589;-72
2023/04/08 08:13:45;;;;;;;8.10;6.80;;;;;;;8.86;71.68;97503.23;108495;1252;100360;-72
2023/04/08 08:16:13;;;;;;;9.20;6.80;;;;;;;9.18;71.08;97505.13;108783;1254;101202;-72
2023/04/08 08:18:41;;;;;;;8.40;6.90;;;;;;;9.51;70.31;97509.45;108791;1253;95538;-73
2023/04/08 08:21:09;;;;;;;8.60;7.50;;;;;;;9.72;69.78;97515.73;108802;1252;95587;-72
2023/04/08 08:23:38;;;;;;;7.90;7.00;;;;;;;9.88;69.67;97526.11;108809;1254;103496;-72
2023/04/08 08:26:09;;;;;;;10.40;8.60;;;;;;;9.93;68.99;97528.48;108831;1253;101658;-72
2023/04/08 08:28:38;;;;;;;8.80;7.80;;;;;;;9.89;67.91;97531.22;108794;1252;99944;-71
2023/04/08 08:31:07;;;;;;;9.20;8.10;;;;;;;9.88;67.90;97526.08;108836;1254;95573;-71
2023/04/08 08:33:35;;;;;;;9.30;7.60;;;;;;;9.82;67.32;97524.98;108816;1254;96063;-72
2023/04/08 08:36:05;;;;;;;9.50;7.80;;;;;;;9.68;66.91;97524.03;108788;1254;103623;-72
2023/04/08 08:38:33;;;;;;;11.00;8.20;;;;;;;9.59;66.96;97523.63;108790;1254;101139;-72
2023/04/08 08:41:02;;;;;;;9.10;7.70;;;;;;;9.60;67.03;97524.05;108732;1253;100004;-73
2023/04/08 08:43:32;;;;;;;9.50;8.00;;;;;;;9.61;66.15;97522.80;108818;1253;95578;-73
2023/04/08 08:46:00;;;;;;;9.60;7.80;;;;;;;9.64;66.82;97525.34;108857;1252;95837;-72
2023/04/08 08:48:29;;;;;;;9.40;7.80;;;;;;;9.81;66.98;97527.70;108799;1253;103467;-71
2023/04/08 08:50:57;;;;;;;10.30;8.50;;;;;;;9.87;66.49;97530.18;108811;1252;101283;-72
2023/04/08 08:53:32;;;;;;;10.70;8.00;;;;;;;9.75;65.91;97529.60;108546;1253;99828;-72
2023/04/08 08:56:00;;;;;;;11.30;8.40;;;;;;;9.60;65.74;97532.63;108813;1253;95541;-72
2023/04/08 08:58:29;;;;;;;9.40;7.60;;;;;;;9.44;65.55;97531.86;108832;1254;96942;-72
2023/04/08 09:00:57;;;;;;;10.40;8.10;;;;;;;9.33;65.56;97524.59;108582;1253;112200;-71
2023/04/08 09:03:27;;;;;;;9.90;6.70;;;;;;;9.29;65.38;97532.41;108810;1252;100613;-72
2023/04/08 09:05:57;;;;;;;10.10;7.70;;;;;;;9.20;64.71;97531.84;108790;1253;99634;-71
2023/04/08 09:08:29;;;;;;;9.50;7.40;;;;;;;9.16;65.15;97534.05;108766;1253;95582;-72
2023/04/08 09:11:12;;;;;;;7.70;6.80;;;;;;;9.23;65.30;97534.91;108735;1252;95640;-73
2023/04/08 09:13:40;;;;;;;9.40;6.30;;;;;;;9.25;64.97;97537.45;108581;1253;103716;-72
2023/04/08 09:16:15;;;;;;;8.80;6.90;;;;;;;9.22;64.32;97540.41;108643;1252;101300;-71
2023/04/08 09:18:45;;;;;;;8.20;6.30;;;;;;;9.21;64.79;97538.87;108836;1252;99918;-72
2023/04/08 09:21:15;;;;;;;7.30;6.30;;;;;;;9.24;64.13;97540.52;108815;1254;95598;-72
2023/04/08 09:23:47;;;;;;;8.60;6.40;;;;;;;9.22;64.50;97541.98;108808;1254;95925;-72
2023/04/08 09:26:17;;;;;;;8.90;6.30;;;;;;;9.23;64.29;97544.52;108807;1253;112345;-72
2023/04/08 09:29:04;;;;;;;10.60;6.30;;;;;;;9.21;63.96;97547.11;108794;1252;109708;-71
2023/04/08 09:31:40;;;;;;;7.80;5.90;;;;;;;9.17;63.64;97548.02;108691;1253;98684;-72
2023/04/08 09:34:13;;;;;;;7.10;6.00;;;;;;;9.13;63.76;97549.08;108782;1252;95611;-72
2023/04/08 09:36:41;;;;;;;7.70;6.60;;;;;;;9.14;63.70;97549.91;108778;1252;95883;-73
2023/04/08 09:39:09;;;;;;;7.60;6.00;;;;;;;9.20;63.49;97549.06;108752;1253;104446;-73
2023/04/08 09:41:39;;;;;;;7.30;6.40;;;;;;;9.27;63.21;97550.64;108775;1254;101256;-74
2023/04/08 09:44:10;;;;;;;8.90;6.90;;;;;;;9.34;63.12;97547.80;108746;1254;100297;-74
2023/04/08 09:46:50;;;;;;;8.30;7.00;;;;;;;9.48;63.21;97548.74;108790;1254;95544;-72
2023/04/08 09:49:46;;;;;;;8.90;7.30;;;;;;;9.64;62.75;97546.52;108809;1253;95867;-72
2023/04/08 09:53:02;;;;;;;8.20;7.10;;;;;;;9.74;62.84;97546.15;108689;1253;103888;-72
2023/04/08 09:55:36;;;;;;;8.70;7.40;;;;;;;9.84;62.04;97547.34;108320;1257;101696;-73
2023/04/08 09:58:12;;;;;;;9.20;7.70;;;;;;;9.96;61.89;97545.88;108305;1257;100048;-72
2023/04/08 10:00:49;;;;;;;11.80;7.80;;;;;;;10.03;61.39;97539.13;108291;1257;95749;-72
2023/04/08 10:03:31;;;;;;;11.90;8.00;;;;;;;10.19;61.98;97539.50;108289;1257;96146;-73
2023/04/08 10:06:02;;;;;;;11.10;8.00;;;;;;;10.41;61.64;97540.83;108295;1257;103814;-72
2023/04/08 10:08:31;;;;;;;9.00;7.30;;;;;;;10.51;61.78;97546.02;108265;1257;101647;-73
2023/04/08 10:11:00;;;;;;;7.80;6.50;;;;;;;10.63;61.80;97545.27;108297;1257;99185;-73
2023/04/08 10:13:29;;;;;;;9.00;7.50;;;;;;;10.73;61.26;97545.55;108145;1257;95631;-74
2023/04/08 10:16:25;;;;;;;8.00;7.10;;;;;;;10.62;60.80;97547.21;108336;1257;96088;-73
2023/04/08 10:18:55;;;;;;;7.60;6.80;;;;;;;10.48;60.98;97547.14;107980;1268;103805;-72
2023/04/08 10:21:42;;;;;;;7.90;7.00;;;;;;;10.39;60.79;97546.68;107938;1264;101715;-72
2023/04/08 10:24:11;;;;;;;8.80;7.50;;;;;;;10.32;60.56;97548.41;107931;1263;99970;-72
2023/04/08 10:26:41;;;;;;;10.80;8.30;;;;;;;10.26;60.59;97552.61;107932;1264;96050;-72
2023/04/08 10:29:20;;;;;;;11.50;8.90;;;;;;;10.29;60.74;97552.69;107973;1264;95918;-71
2023/04/08 10:31:50;;;;;;;9.90;8.80;;;;;;;10.37;60.86;97548.71;108062;1260;103167;-72
2023/04/08 10:34:23;;;;;;;13.60;10.40;;;;;;;10.32;60.97;97547.13;108196;1259;101619;-72
2023/04/08 10:36:52;;;;;;;12.80;10.60;;;;;;;10.26;60.80;97551.77;108236;1259;99833;-73
2023/04/08 10:39:20;;;;;;;11.70;10.20;;;;;;;10.15;61.10;97553.02;108184;1260;95624;-73
2023/04/08 10:41:50;;;;;;;15.00;11.80;;;;;;;10.12;61.23;97555.05;108256;1259;96084;-71
2023/04/08 10:44:24;;;;;;;14.70;11.10;;;;;;;10.10;61.45;97556.16;108309;1258;103685;-73
2023/04/08 10:46:53;;;;;;;13.70;11.20;;;;;;;10.13;61.42;97554.66;108151;1260;101671;-72
2023/04/08 10:49:22;;;;;;;15.20;12.00;;;;;;;10.02;61.06;97555.98;108254;1259;99809;-72
2023/04/08 10:51:51;;;;;;;14.00;11.60;;;;;;;9.99;61.76;97553.60;108111;1259;95971;-73
2023/04/08 10:54:19;;;;;;;15.20;12.60;;;;;;;10.01;61.81;97554.53;108312;1260;96084;-72
2023/04/08 10:56:53;;;;;;;14.10;12.10;;;;;;;10.06;61.87;97559.77;108692;1252;103802;-73
2023/04/08 10:59:32;;;;;;;15.10;12.00;;;;;;;10.10;61.42;97556.33;108792;1252;101229;-72
2023/04/08 11:02:01;;;;;;;15.90;13.20;;;;;;;10.02;61.63;97558.76;108528;1252;98634;-72
2023/04/08 11:04:29;;;;;;;18.90;14.10;;;;;;;9.95;61.43;97560.19;108739;1254;95543;-71
2023/04/08 11:06:57;;;;;;;16.60;13.20;;;;;;;9.81;61.30;97565.29;108747;1251;95636;-73
2023/04/08 11:09:26;;;;;;;16.30;13.60;;;;;;;9.70;61.69;97558.78;108739;1253;103666;-71
2023/04/08 11:11:55;;;;;;;18.70;13.60;;;;;;;9.65;61.76;97557.31;108779;1253;101339;-72
2023/04/08 11:14:24;;;;;;;18.40;13.70;;;;;;;9.58;61.59;97554.92;108752;1252;100353;-73
2023/04/08 11:16:52;;;;;;;17.70;13.30;;;;;;;9.52;61.95;97562.36;108740;1252;95903;-73
2023/04/08 11:19:21;;;;;;;18.60;14.70;;;;;;;9.53;62.41;97558.51;108830;1251;95933;-73
2023/04/08 11:21:51;;;;;;;16.10;12.70;;;;;;;9.59;62.64;97553.10;108784;1252;102541;-72
2023/04/08 11:24:21;;;;;;;16.50;13.70;;;;;;;9.70;62.32;97553.80;108779;1254;101331;-72
2023/04/08 11:26:49;;;;;;;15.50;12.50;;;;;;;9.85;62.32;97557.88;108749;1252;99911;-72